West Delhi, New York
Current Conditions -  °F | °C
As of 12:35 AM on Sunday 26 Oct 2014 (Local Time) from KMSV Reporting Station
Few Clouds Few Clouds  
Wind Chill: 11°   Ceiling: Unl
Heat Index: 11°   Visibility: 10mi
Dew Point:   Wind: 7mph
Humidity: 62%   Direction: 280°W
Pressure: 29.58"   Gusts: NA
Location:  42.3065°N, 74.9298°W
Report Text: KMSV 260435Z AUTO 28006KT 10SM FEW048 11/04 A2958 RMK AO1
Loading
Personal Weather Stations






























Interactive Weather Map
Tropical Storm Tracking
New forecast layout! Learn more

10-Day Weather Forecast

Advertisements
Track Severe Weather on mobile